Time;durP1;ratioP1;P1;durP2;ratioP2;P2;SDS_P1;SDS_P2;PMS_P1;PMS_P2;Temp;Humidity;BMP_temperature;BMP_pressure;BME280_temperature;BME280_humidity;BME280_pressure;Samples;Min_cycle;Max_cycle;Signal;HPM_P1;HPM_P2
2024/01/26 00:01:33;;;;;;;22.85;8.73;;;;;;;;;;5011101;28;20048;-56
2024/01/26 00:03:59;;;;;;;17.60;8.38;;;;;;;;;;5011749;28;20033;-59
2024/01/26 00:06:25;;;;;;;16.42;8.13;;;;;;;;;;5010460;28;20396;-58
2024/01/26 00:08:51;;;;;;;14.82;7.50;;;;;;;;;;5011905;28;20396;-59
2024/01/26 00:11:17;;;;;;;16.20;7.20;;;;;;;;;;5013181;28;20049;-58
2024/01/26 00:13:43;;;;;;;15.30;7.28;;;;;;;;;;5014259;28;20075;-58
2024/01/26 00:16:09;;;;;;;13.75;7.32;;;;;;;;;;5011635;28;20112;-61
2024/01/26 00:18:36;;;;;;;19.80;7.72;;;;;;;;;;5014745;28;21196;-61
2024/01/26 00:21:01;;;;;;;15.75;7.35;;;;;;;;;;5012587;28;20030;-58
2024/01/26 00:23:28;;;;;;;14.35;7.00;;;;;;;;;;5011028;28;20039;-60
2024/01/26 00:25:54;;;;;;;14.43;7.20;;;;;;;;;;5008513;28;20365;-59
2024/01/26 00:28:20;;;;;;;18.42;7.18;;;;;;;;;;5010378;28;20030;-59
2024/01/26 00:30:46;;;;;;;18.08;8.20;;;;;;;;;;5009894;28;20057;-59
2024/01/26 00:33:12;;;;;;;17.45;6.35;;;;;;;;;;5013702;28;20153;-60
2024/01/26 00:35:38;;;;;;;12.07;7.35;;;;;;;;;;5010968;28;20030;-59
2024/01/26 00:38:05;;;;;;;14.23;6.72;;;;;;;;;;5016219;28;20034;-60
2024/01/26 00:40:31;;;;;;;18.45;7.70;;;;;;;;;;5011815;28;20511;-59
2024/01/26 00:42:56;;;;;;;15.50;7.22;;;;;;;;;;5010437;28;20030;-58
2024/01/26 00:45:23;;;;;;;13.30;7.55;;;;;;;;;;5018766;28;20546;-60
2024/01/26 00:47:49;;;;;;;17.40;8.23;;;;;;;;;;5021509;28;20084;-61
2024/01/26 00:50:15;;;;;;;18.95;7.90;;;;;;;;;;5013696;28;20530;-60
2024/01/26 00:52:41;;;;;;;16.55;7.75;;;;;;;;;;5014236;28;20026;-59
2024/01/26 00:55:06;;;;;;;13.38;7.45;;;;;;;;;;5015258;28;20488;-59
2024/01/26 00:57:32;;;;;;;12.57;6.93;;;;;;;;;;5015668;28;20052;-59
2024/01/26 01:00:07;;;;;;;14.73;7.70;;;;;;;;;;5017061;28;20048;-59
2024/01/26 01:02:33;;;;;;;13.85;6.72;;;;;;;;;;5027960;28;20026;-60
2024/01/26 01:04:59;;;;;;;15.98;7.95;;;;;;;;;;5019275;28;20026;-58
2024/01/26 01:07:25;;;;;;;15.93;7.88;;;;;;;;;;5013761;28;20025;-59
2024/01/26 01:09:51;;;;;;;20.75;8.65;;;;;;;;;;5015411;28;20072;-60
2024/01/26 01:12:16;;;;;;;16.90;7.95;;;;;;;;;;5019390;28;20455;-58
2024/01/26 01:14:44;;;;;;;16.85;8.10;;;;;;;;;;5021128;28;20617;-60
2024/01/26 01:17:11;;;;;;;18.58;8.32;;;;;;;;;;5009758;28;20377;-59
2024/01/26 01:19:37;;;;;;;15.32;6.75;;;;;;;;;;5011829;28;20458;-58
2024/01/26 01:22:03;;;;;;;14.27;7.80;;;;;;;;;;5015131;28;20041;-58
2024/01/26 01:24:29;;;;;;;13.38;7.55;;;;;;;;;;5017165;28;20369;-59
2024/01/26 01:26:55;;;;;;;13.93;7.88;;;;;;;;;;5015713;28;20030;-58
2024/01/26 01:29:21;;;;;;;14.25;7.38;;;;;;;;;;5016975;28;20034;-59
2024/01/26 01:31:47;;;;;;;16.45;8.43;;;;;;;;;;5014034;28;20044;-58
2024/01/26 01:34:13;;;;;;;15.38;8.38;;;;;;;;;;5019464;28;20037;-59
2024/01/26 01:36:39;;;;;;;20.05;8.38;;;;;;;;;;5014771;28;20097;-59
2024/01/26 01:39:05;;;;;;;14.45;7.53;;;;;;;;;;5016079;28;20041;-59
2024/01/26 01:41:30;;;;;;;13.77;7.68;;;;;;;;;;5017564;28;20492;-59
2024/01/26 01:43:57;;;;;;;20.48;8.45;;;;;;;;;;5015507;28;20523;-58
2024/01/26 01:46:23;;;;;;;11.63;6.97;;;;;;;;;;5016732;28;20021;-59
2024/01/26 01:48:49;;;;;;;15.35;7.70;;;;;;;;;;5017960;28;20030;-60
2024/01/26 01:51:16;;;;;;;16.00;7.68;;;;;;;;;;5012508;28;20022;-60
2024/01/26 01:53:42;;;;;;;14.98;7.95;;;;;;;;;;5016522;28;20022;-58
2024/01/26 01:56:12;;;;;;;12.48;7.45;;;;;;;;;;5013000;28;20022;-58
2024/01/26 01:58:38;;;;;;;17.80;7.38;;;;;;;;;;5019033;28;20033;-58
2024/01/26 02:01:04;;;;;;;13.30;7.80;;;;;;;;;;5014788;28;20539;-59
2024/01/26 02:03:31;;;;;;;15.27;7.75;;;;;;;;;;5012609;28;20061;-59
2024/01/26 02:05:57;;;;;;;13.68;8.20;;;;;;;;;;5015603;28;20033;-58
2024/01/26 02:08:23;;;;;;;13.15;7.30;;;;;;;;;;5012246;28;20040;-60
2024/01/26 02:10:49;;;;;;;12.10;7.53;;;;;;;;;;5013991;28;20156;-59
2024/01/26 02:13:15;;;;;;;16.75;8.02;;;;;;;;;;5016915;28;20108;-57
2024/01/26 02:15:41;;;;;;;14.98;7.82;;;;;;;;;;5019400;28;20303;-57
2024/01/26 02:18:07;;;;;;;16.15;7.90;;;;;;;;;;5014723;28;20052;-57
2024/01/26 02:20:33;;;;;;;13.55;7.40;;;;;;;;;;5017813;28;20105;-58
2024/01/26 02:22:59;;;;;;;20.13;8.23;;;;;;;;;;5009679;28;20034;-58
2024/01/26 02:25:25;;;;;;;15.43;8.07;;;;;;;;;;5015453;28;20030;-57
2024/01/26 02:27:52;;;;;;;13.52;7.47;;;;;;;;;;5010145;28;20022;-58
2024/01/26 02:30:18;;;;;;;14.35;8.63;;;;;;;;;;5016366;28;20026;-58
2024/01/26 02:32:44;;;;;;;20.52;9.27;;;;;;;;;;5014310;28;20029;-61
2024/01/26 02:35:11;;;;;;;17.08;9.45;;;;;;;;;;5018957;28;20041;-59
2024/01/26 02:37:36;;;;;;;16.90;8.68;;;;;;;;;;5013933;28;20109;-59
2024/01/26 02:40:03;;;;;;;19.08;9.52;;;;;;;;;;5016827;28;20109;-59
2024/01/26 02:42:29;;;;;;;20.08;9.77;;;;;;;;;;5015443;28;20034;-58
2024/01/26 02:44:55;;;;;;;18.88;9.07;;;;;;;;;;5012011;28;20119;-59
2024/01/26 02:47:21;;;;;;;19.33;8.20;;;;;;;;;;5014561;28;20083;-56
2024/01/26 02:49:47;;;;;;;13.68;8.57;;;;;;;;;;5011381;28;20034;-58
2024/01/26 02:52:13;;;;;;;15.15;8.90;;;;;;;;;;5012148;28;20083;-58
2024/01/26 02:54:38;;;;;;;13.20;8.15;;;;;;;;;;5017398;28;20057;-60
2024/01/26 02:57:05;;;;;;;22.35;9.68;;;;;;;;;;5013894;28;20029;-57
2024/01/26 02:59:31;;;;;;;18.98;8.60;;;;;;;;;;5011564;28;20025;-59
2024/01/26 03:01:57;;;;;;;18.38;9.55;;;;;;;;;;5011153;28;20605;-59
2024/01/26 03:04:22;;;;;;;18.73;9.30;;;;;;;;;;5015081;28;20118;-58
2024/01/26 03:06:50;;;;;;;18.88;9.95;;;;;;;;;;5010025;28;20029;-59
2024/01/26 03:09:17;;;;;;;17.67;8.75;;;;;;;;;;5016980;28;20101;-59
2024/01/26 03:11:43;;;;;;;14.05;8.50;;;;;;;;;;5013503;28;20053;-59
2024/01/26 03:14:09;;;;;;;14.77;8.25;;;;;;;;;;5015358;28;20053;-59
2024/01/26 03:16:36;;;;;;;15.18;8.13;;;;;;;;;;5011952;28;20029;-60
2024/01/26 03:19:02;;;;;;;14.50;8.32;;;;;;;;;;5015236;28;20030;-58
2024/01/26 03:21:28;;;;;;;18.25;7.65;;;;;;;;;;5014494;28;20028;-57
2024/01/26 03:23:54;;;;;;;15.05;7.97;;;;;;;;;;5013769;28;20033;-58
2024/01/26 03:26:20;;;;;;;20.65;8.10;;;;;;;;;;5016537;28;20064;-58
2024/01/26 03:28:47;;;;;;;22.60;10.20;;;;;;;;;;5015847;28;20481;-60
2024/01/26 03:31:13;;;;;;;17.70;8.13;;;;;;;;;;5010019;28;20041;-59
2024/01/26 03:33:40;;;;;;;22.75;9.98;;;;;;;;;;5012976;28;20212;-59
2024/01/26 03:36:06;;;;;;;18.17;7.28;;;;;;;;;;5008173;28;20041;-59
2024/01/26 03:38:32;;;;;;;18.50;6.63;;;;;;;;;;5013794;28;20113;-57
2024/01/26 03:40:58;;;;;;;17.20;7.70;;;;;;;;;;5011143;28;20155;-59
2024/01/26 03:43:24;;;;;;;14.18;6.88;;;;;;;;;;5013059;28;20033;-59
2024/01/26 03:45:50;;;;;;;11.15;6.88;;;;;;;;;;5016628;28;20034;-59
2024/01/26 03:48:16;;;;;;;18.65;7.00;;;;;;;;;;5014628;28;20030;-57
2024/01/26 03:50:42;;;;;;;15.63;7.70;;;;;;;;;;5015179;28;20037;-57
2024/01/26 03:53:08;;;;;;;11.77;6.25;;;;;;;;;;5014422;28;20048;-60
2024/01/26 03:55:34;;;;;;;13.90;6.97;;;;;;;;;;5013208;28;20080;-59
2024/01/26 03:58:00;;;;;;;18.08;6.35;;;;;;;;;;5012213;28;20026;-60
2024/01/26 04:00:26;;;;;;;13.80;6.10;;;;;;;;;;5011910;28;20088;-59
2024/01/26 04:02:51;;;;;;;11.90;6.57;;;;;;;;;;5011245;28;20148;-58
2024/01/26 04:05:17;;;;;;;11.70;6.03;;;;;;;;;;5012378;28;20037;-60
2024/01/26 04:07:43;;;;;;;11.00;5.43;;;;;;;;;;5010769;28;20032;-60
2024/01/26 04:10:09;;;;;;;9.82;5.90;;;;;;;;;;5013203;28;20033;-61
2024/01/26 04:12:35;;;;;;;9.95;5.80;;;;;;;;;;5012623;28;20026;-59
2024/01/26 04:15:01;;;;;;;10.00;5.22;;;;;;;;;;5011938;28;20072;-58
2024/01/26 04:17:27;;;;;;;9.60;5.78;;;;;;;;;;5013987;28;20029;-60
2024/01/26 04:19:53;;;;;;;13.77;5.80;;;;;;;;;;5011965;28;20022;-58
2024/01/26 04:22:19;;;;;;;8.70;5.70;;;;;;;;;;5013810;28;20546;-57
2024/01/26 04:24:46;;;;;;;12.98;6.25;;;;;;;;;;5017697;28;20022;-58
2024/01/26 04:27:11;;;;;;;8.93;4.63;;;;;;;;;;5015001;28;20049;-59
2024/01/26 04:29:37;;;;;;;8.65;4.97;;;;;;;;;;5015915;28;20022;-56
2024/01/26 04:32:04;;;;;;;10.90;5.00;;;;;;;;;;5018231;28;20487;-55
2024/01/26 04:34:30;;;;;;;9.00;4.68;;;;;;;;;;5016762;28;20018;-58
2024/01/26 04:36:56;;;;;;;7.75;4.60;;;;;;;;;;5013037;28;20516;-57
2024/01/26 04:39:21;;;;;;;10.98;4.05;;;;;;;;;;5015462;28;20170;-59
2024/01/26 04:41:47;;;;;;;6.15;4.30;;;;;;;;;;5014819;28;20037;-59
2024/01/26 04:44:13;;;;;;;8.95;4.00;;;;;;;;;;5020238;28;20032;-59
2024/01/26 04:46:39;;;;;;;5.72;3.78;;;;;;;;;;5019632;28;20108;-60
2024/01/26 04:49:05;;;;;;;4.43;3.15;;;;;;;;;;5017335;28;20029;-58
2024/01/26 04:51:31;;;;;;;5.35;3.33;;;;;;;;;;5019746;28;20049;-59
2024/01/26 04:53:57;;;;;;;5.60;3.30;;;;;;;;;;5016094;28;20060;-60
2024/01/26 04:56:23;;;;;;;6.53;2.90;;;;;;;;;;5016545;28;20053;-60
2024/01/26 04:58:50;;;;;;;5.72;3.40;;;;;;;;;;5016981;28;20500;-59
2024/01/26 05:01:16;;;;;;;7.47;3.53;;;;;;;;;;5019023;28;20145;-59
2024/01/26 05:03:41;;;;;;;4.65;2.72;;;;;;;;;;5016974;28;20520;-54
2024/01/26 05:06:08;;;;;;;4.15;2.90;;;;;;;;;;5015710;28;20034;-59
2024/01/26 05:08:33;;;;;;;6.88;2.92;;;;;;;;;;5017348;28;20022;-59
2024/01/26 05:10:59;;;;;;;5.85;2.85;;;;;;;;;;5016829;28;20026;-57
2024/01/26 05:13:25;;;;;;;4.55;2.55;;;;;;;;;;5010575;28;20068;-59
2024/01/26 05:15:51;;;;;;;5.35;2.83;;;;;;;;;;5013779;28;20373;-59
2024/01/26 05:18:17;;;;;;;8.40;2.78;;;;;;;;;;5010850;28;20065;-59
2024/01/26 05:20:43;;;;;;;9.35;2.92;;;;;;;;;;5026214;28;20026;-58
2024/01/26 05:23:09;;;;;;;4.90;2.88;;;;;;;;;;5015583;28;20033;-58
2024/01/26 05:25:35;;;;;;;4.70;2.42;;;;;;;;;;5011585;28;20025;-59
2024/01/26 05:28:01;;;;;;;5.85;2.75;;;;;;;;;;5012391;28;20029;-59
2024/01/26 05:30:27;;;;;;;7.85;3.17;;;;;;;;;;5014227;28;20057;-60
2024/01/26 05:32:53;;;;;;;4.18;2.15;;;;;;;;;;5013803;28;20034;-59
2024/01/26 05:35:21;;;;;;;7.32;3.25;;;;;;;;;;5009335;28;20030;-59
2024/01/26 05:37:48;;;;;;;3.78;2.60;;;;;;;;;;5015691;28;20060;-60
2024/01/26 05:40:14;;;;;;;4.90;2.83;;;;;;;;;;5012196;28;20112;-59
2024/01/26 05:42:40;;;;;;;3.65;2.55;;;;;;;;;;5009953;28;20272;-60
2024/01/26 05:45:06;;;;;;;8.13;3.00;;;;;;;;;;5014254;28;20168;-58
2024/01/26 05:47:32;;;;;;;5.35;2.65;;;;;;;;;;5002640;28;20053;-58
2024/01/26 05:49:58;;;;;;;3.58;2.33;;;;;;;;;;5013251;28;20037;-60
2024/01/26 05:52:24;;;;;;;6.55;1.95;;;;;;;;;;5010914;28;20400;-58
2024/01/26 05:54:50;;;;;;;5.03;2.72;;;;;;;;;;5013715;28;20034;-55
2024/01/26 05:57:16;;;;;;;3.72;2.35;;;;;;;;;;5007969;28;20065;-58
2024/01/26 05:59:42;;;;;;;3.53;2.17;;;;;;;;;;5011366;28;20030;-56
2024/01/26 06:02:08;;;;;;;6.00;2.38;;;;;;;;;;5003180;28;20034;-57
2024/01/26 06:04:34;;;;;;;4.03;2.40;;;;;;;;;;5020705;28;20033;-56
2024/01/26 06:07:00;;;;;;;4.35;2.90;;;;;;;;;;5005226;28;20022;-58
2024/01/26 06:09:26;;;;;;;3.60;2.15;;;;;;;;;;5015436;28;20022;-56
2024/01/26 06:11:52;;;;;;;3.78;2.53;;;;;;;;;;5009319;28;20404;-58
2024/01/26 06:14:18;;;;;;;3.00;2.28;;;;;;;;;;5021106;28;20057;-58
2024/01/26 06:16:48;;;;;;;3.35;2.13;;;;;;;;;;5010018;28;20030;-59
2024/01/26 06:19:13;;;;;;;5.53;2.47;;;;;;;;;;5014111;28;20022;-56
2024/01/26 06:21:39;;;;;;;4.75;2.25;;;;;;;;;;5018549;28;20029;-59
2024/01/26 06:24:05;;;;;;;4.18;1.73;;;;;;;;;;5012214;28;20069;-57
2024/01/26 06:26:31;;;;;;;2.30;2.10;;;;;;;;;;5023358;28;20368;-58
2024/01/26 06:28:57;;;;;;;5.82;2.22;;;;;;;;;;5019421;28;20022;-58
2024/01/26 06:31:27;;;;;;;7.20;2.95;;;;;;;;;;5011966;28;20552;-57
2024/01/26 06:33:53;;;;;;;10.40;2.45;;;;;;;;;;5019680;28;20033;-57
2024/01/26 06:36:19;;;;;;;3.40;1.83;;;;;;;;;;5021165;28;20105;-57
2024/01/26 06:38:45;;;;;;;3.42;1.77;;;;;;;;;;5019958;28;20480;-58
2024/01/26 06:41:11;;;;;;;4.00;2.30;;;;;;;;;;5004804;28;20026;-58
2024/01/26 06:43:37;;;;;;;6.25;2.25;;;;;;;;;;5002957;28;20037;-58
2024/01/26 06:46:03;;;;;;;4.97;2.28;;;;;;;;;;5000599;28;20044;-58
2024/01/26 06:48:29;;;;;;;4.05;2.50;;;;;;;;;;5009820;28;20022;-55
2024/01/26 06:50:55;;;;;;;3.75;2.17;;;;;;;;;;5007156;28;20384;-56
2024/01/26 06:53:21;;;;;;;6.03;2.05;;;;;;;;;;5012332;28;20025;-57
2024/01/26 06:55:47;;;;;;;4.55;2.30;;;;;;;;;;5001449;28;20313;-59
2024/01/26 06:58:13;;;;;;;3.35;2.00;;;;;;;;;;5016929;28;20492;-61
2024/01/26 07:00:39;;;;;;;2.95;2.00;;;;;;;;;;5001659;28;20112;-62
2024/01/26 07:03:05;;;;;;;3.15;2.20;;;;;;;;;;5005955;28;20500;-62
2024/01/26 07:05:31;;;;;;;2.88;2.28;;;;;;;;;;5005711;28;20488;-61
2024/01/26 07:07:57;;;;;;;2.95;2.25;;;;;;;;;;5003427;28;20404;-61
2024/01/26 07:10:23;;;;;;;6.00;2.28;;;;;;;;;;5005599;28;20089;-61
2024/01/26 07:12:49;;;;;;;4.00;2.38;;;;;;;;;;5000799;28;20087;-61
2024/01/26 07:15:16;;;;;;;7.80;2.40;;;;;;;;;;5000922;28;20489;-62
2024/01/26 07:17:41;;;;;;;4.68;2.38;;;;;;;;;;5002362;28;20018;-63
2024/01/26 07:20:08;;;;;;;4.82;2.47;;;;;;;;;;5007723;28;20425;-60
2024/01/26 07:22:34;;;;;;;10.90;2.83;;;;;;;;;;5012887;28;20076;-59
2024/01/26 07:25:00;;;;;;;10.35;2.58;;;;;;;;;;5013045;28;20479;-59
2024/01/26 07:27:26;;;;;;;6.05;3.05;;;;;;;;;;5014486;28;20030;-59
2024/01/26 07:29:52;;;;;;;4.30;2.90;;;;;;;;;;5002678;28;20026;-58
2024/01/26 07:32:18;;;;;;;10.77;3.55;;;;;;;;;;5003680;28;20092;-58
2024/01/26 07:34:43;;;;;;;11.27;4.15;;;;;;;;;;5009845;28;20444;-59
2024/01/26 07:37:09;;;;;;;7.30;3.67;;;;;;;;;;4999070;28;20038;-59
2024/01/26 07:39:35;;;;;;;13.82;4.18;;;;;;;;;;5001624;28;20034;-59
2024/01/26 07:42:01;;;;;;;10.00;4.00;;;;;;;;;;5008573;28;20393;-56
2024/01/26 07:44:27;;;;;;;7.90;3.78;;;;;;;;;;5014704;28;20022;-59
2024/01/26 07:46:53;;;;;;;6.53;3.80;;;;;;;;;;5011022;28;20033;-58
2024/01/26 07:49:19;;;;;;;17.13;4.15;;;;;;;;;;5007771;28;20025;-59
2024/01/26 07:51:45;;;;;;;9.90;3.65;;;;;;;;;;5000920;28;20022;-58
2024/01/26 07:54:11;;;;;;;11.38;4.25;;;;;;;;;;5009622;28;20126;-59
2024/01/26 07:56:37;;;;;;;4.97;3.55;;;;;;;;;;5008472;28;20026;-55
2024/01/26 07:59:03;;;;;;;11.10;3.95;;;;;;;;;;5009176;28;20461;-59
2024/01/26 08:01:29;;;;;;;13.75;3.90;;;;;;;;;;5007084;28;20496;-59
2024/01/26 08:03:55;;;;;;;15.50;4.68;;;;;;;;;;5007061;28;20531;-58
2024/01/26 08:06:21;;;;;;;7.22;3.85;;;;;;;;;;4997121;28;20044;-58
2024/01/26 08:08:47;;;;;;;21.35;5.13;;;;;;;;;;5007554;28;20030;-58
2024/01/26 08:11:13;;;;;;;6.53;3.92;;;;;;;;;;5008746;28;20026;-59
2024/01/26 08:13:39;;;;;;;12.82;3.67;;;;;;;;;;5010046;28;20075;-59
2024/01/26 08:16:05;;;;;;;7.88;3.58;;;;;;;;;;5004685;28;20416;-59
2024/01/26 08:18:31;;;;;;;9.52;3.58;;;;;;;;;;5003709;28;20049;-60
2024/01/26 08:20:57;;;;;;;8.25;3.80;;;;;;;;;;5003127;28;20034;-59
2024/01/26 08:23:23;;;;;;;6.45;3.47;;;;;;;;;;5005547;28;20037;-58
2024/01/26 08:25:49;;;;;;;9.75;3.45;;;;;;;;;;5009562;28;20041;-59
2024/01/26 08:28:15;;;;;;;7.50;3.38;;;;;;;;;;5011950;28;20026;-60
2024/01/26 08:30:42;;;;;;;10.52;3.45;;;;;;;;;;5005905;28;20027;-60
2024/01/26 08:33:08;;;;;;;8.20;2.72;;;;;;;;;;5003067;28;20147;-61
2024/01/26 08:35:34;;;;;;;4.13;2.50;;;;;;;;;;5005266;28;20034;-59
2024/01/26 08:38:00;;;;;;;4.57;2.60;;;;;;;;;;5004103;28;20034;-59
2024/01/26 08:40:28;;;;;;;3.28;1.80;;;;;;;;;;5003546;28;20038;-60
2024/01/26 08:42:53;;;;;;;5.45;2.28;;;;;;;;;;5004445;28;20018;-60
2024/01/26 08:45:19;;;;;;;4.55;2.10;;;;;;;;;;5008876;28;20113;-60
2024/01/26 08:47:45;;;;;;;4.88;2.38;;;;;;;;;;5009970;28;20022;-60
2024/01/26 08:50:11;;;;;;;6.47;2.60;;;;;;;;;;5008676;28;20029;-58
2024/01/26 08:52:37;;;;;;;5.28;2.13;;;;;;;;;;5013897;28;20091;-60
2024/01/26 08:55:04;;;;;;;6.50;2.05;;;;;;;;;;5012923;28;20030;-58
2024/01/26 08:57:30;;;;;;;6.05;1.95;;;;;;;;;;5012029;28;20034;-60
2024/01/26 08:59:55;;;;;;;4.75;2.20;;;;;;;;;;5010436;28;20026;-59
2024/01/26 09:02:21;;;;;;;3.85;1.70;;;;;;;;;;5011249;28;20061;-60
2024/01/26 09:04:47;;;;;;;10.50;2.10;;;;;;;;;;5011552;28;20485;-58
2024/01/26 09:07:17;;;;;;;6.10;2.03;;;;;;;;;;5012894;28;20041;-60
2024/01/26 09:09:43;;;;;;;4.78;1.67;;;;;;;;;;5012765;28;20029;-60
2024/01/26 09:12:09;;;;;;;9.38;2.22;;;;;;;;;;5007264;28;20022;-60
2024/01/26 09:14:35;;;;;;;5.03;1.75;;;;;;;;;;5014697;28;20086;-60
2024/01/26 09:17:01;;;;;;;6.40;2.50;;;;;;;;;;5005979;28;20064;-61
2024/01/26 09:19:27;;;;;;;5.40;1.70;;;;;;;;;;5014694;28;20029;-61
2024/01/26 09:21:53;;;;;;;6.72;1.67;;;;;;;;;;5013186;28;20018;-61
2024/01/26 09:24:19;;;;;;;4.88;1.30;;;;;;;;;;5010665;28;20029;-60
2024/01/26 09:26:45;;;;;;;3.30;1.80;;;;;;;;;;5019018;28;20075;-60
2024/01/26 09:29:11;;;;;;;5.78;1.58;;;;;;;;;;5009984;28;20341;-60
2024/01/26 09:31:37;;;;;;;2.90;1.02;;;;;;;;;;5010353;28;20120;-60
2024/01/26 09:34:04;;;;;;;2.08;0.90;;;;;;;;;;5011262;28;20113;-61
2024/01/26 09:36:31;;;;;;;1.83;1.25;;;;;;;;;;5009767;28;20026;-61
2024/01/26 09:38:57;;;;;;;2.05;1.10;;;;;;;;;;5011026;28;20065;-59
2024/01/26 09:41:23;;;;;;;1.90;1.00;;;;;;;;;;5008200;28;20030;-57
2024/01/26 09:43:49;;;;;;;1.40;0.70;;;;;;;;;;5011126;28;20025;-61
2024/01/26 09:46:15;;;;;;;2.53;0.80;;;;;;;;;;5008921;28;20038;-61
2024/01/26 09:48:41;;;;;;;2.97;0.90;;;;;;;;;;5006929;28;20658;-60
2024/01/26 09:51:07;;;;;;;1.25;0.80;;;;;;;;;;5010046;28;20389;-60
2024/01/26 09:53:35;;;;;;;1.45;0.70;;;;;;;;;;5010765;28;20028;-61
2024/01/26 09:56:02;;;;;;;5.38;1.35;;;;;;;;;;5013391;28;20476;-60
2024/01/26 09:58:28;;;;;;;1.15;0.80;;;;;;;;;;5010114;28;20052;-60
2024/01/26 10:00:55;;;;;;;4.22;0.90;;;;;;;;;;5014304;28;20109;-60
2024/01/26 10:03:24;;;;;;;2.28;1.10;;;;;;;;;;5009792;28;20079;-61
2024/01/26 10:05:50;;;;;;;1.30;1.00;;;;;;;;;;5008738;28;20496;-60
2024/01/26 10:08:16;;;;;;;1.67;0.80;;;;;;;;;;5010817;28;20404;-59
2024/01/26 10:10:42;;;;;;;0.85;0.85;;;;;;;;;;5012236;28;20030;-60
2024/01/26 10:13:08;;;;;;;4.20;0.93;;;;;;;;;;5011466;28;20520;-61
2024/01/26 10:15:34;;;;;;;1.38;1.00;;;;;;;;;;5016878;28;20022;-60
2024/01/26 10:18:01;;;;;;;1.80;0.95;;;;;;;;;;5012530;28;20112;-60
2024/01/26 10:20:27;;;;;;;1.05;0.93;;;;;;;;;;5012576;28;20100;-60
2024/01/26 10:22:53;;;;;;;1.65;0.70;;;;;;;;;;5009755;28;20492;-59
2024/01/26 10:25:19;;;;;;;4.97;1.20;;;;;;;;;;5012289;28;20037;-59
2024/01/26 10:27:45;;;;;;;0.70;0.70;;;;;;;;;;5010801;28;20416;-60
2024/01/26 10:30:11;;;;;;;0.95;0.80;;;;;;;;;;5016856;28;20080;-60
2024/01/26 10:32:38;;;;;;;1.02;0.93;;;;;;;;;;5011179;28;20030;-60
2024/01/26 10:35:05;;;;;;;0.82;0.70;;;;;;;;;;5009168;28;20619;-59
2024/01/26 10:37:32;;;;;;;2.53;0.90;;;;;;;;;;5011779;28;20026;-59
2024/01/26 10:39:59;;;;;;;1.58;1.17;;;;;;;;;;5012792;28;20032;-61
2024/01/26 10:42:26;;;;;;;1.58;0.88;;;;;;;;;;5012470;28;20557;-60
2024/01/26 10:44:52;;;;;;;1.85;0.90;;;;;;;;;;5013961;28;20392;-60
2024/01/26 10:47:18;;;;;;;5.22;1.48;;;;;;;;;;5011844;28;20030;-59
2024/01/26 10:49:49;;;;;;;1.15;1.05;;;;;;;;;;5011032;28;20022;-59
2024/01/26 10:52:22;;;;;;;2.65;1.02;;;;;;;;;;5007757;28;20025;-59
2024/01/26 10:54:48;;;;;;;3.28;1.23;;;;;;;;;;5010927;28;20115;-59
2024/01/26 10:57:19;;;;;;;2.30;1.02;;;;;;;;;;5010358;28;20045;-60
2024/01/26 10:59:45;;;;;;;4.00;1.25;;;;;;;;;;5012957;28;20026;-60
2024/01/26 11:02:20;;;;;;;1.75;1.25;;;;;;;;;;5012077;28;20034;-58
2024/01/26 11:04:46;;;;;;;1.40;1.20;;;;;;;;;;5009960;28;20100;-60
2024/01/26 11:07:13;;;;;;;2.42;1.10;;;;;;;;;;5012748;28;20030;-59
2024/01/26 11:09:38;;;;;;;3.38;1.63;;;;;;;;;;5011450;28;20021;-60
2024/01/26 11:12:08;;;;;;;3.28;1.33;;;;;;;;;;5012277;28;20029;-59
2024/01/26 11:14:34;;;;;;;3.25;1.83;;;;;;;;;;5013679;28;20480;-60
2024/01/26 11:17:10;;;;;;;15.90;4.18;;;;;;;;;;5010417;28;20097;-59
2024/01/26 11:19:36;;;;;;;4.22;2.00;;;;;;;;;;5015511;28;20049;-58
2024/01/26 11:22:04;;;;;;;3.05;2.03;;;;;;;;;;5008255;28;20413;-59
2024/01/26 11:24:32;;;;;;;1.70;1.20;;;;;;;;;;5010913;28;20022;-59
2024/01/26 11:26:59;;;;;;;6.70;1.10;;;;;;;;;;5006748;28;20472;-60
2024/01/26 11:29:39;;;;;;;8.88;1.60;;;;;;;;;;5007090;28;20112;-59
2024/01/26 11:32:18;;;;;;;2.25;1.00;;;;;;;;;;5009756;28;20534;-61
2024/01/26 11:34:44;;;;;;;6.68;1.13;;;;;;;;;;5009859;28;20037;-59
2024/01/26 11:37:14;;;;;;;7.93;1.65;;;;;;;;;;5010202;28;20503;-60
2024/01/26 11:39:40;;;;;;;5.95;1.05;;;;;;;;;;5008600;28;20029;-60
2024/01/26 11:42:10;;;;;;;15.27;1.30;;;;;;;;;;5004580;28;20026;-60
2024/01/26 11:44:40;;;;;;;5.15;1.30;;;;;;;;;;5008710;28;20116;-60
2024/01/26 11:47:07;;;;;;;13.27;1.45;;;;;;;;;;5004425;28;20065;-60
2024/01/26 11:49:33;;;;;;;5.70;1.83;;;;;;;;;;5004090;28;20500;-60
2024/01/26 11:51:59;;;;;;;8.27;1.58;;;;;;;;;;5008069;28;20097;-60
2024/01/26 11:54:25;;;;;;;13.93;1.73;;;;;;;;;;5003903;28;20068;-60
2024/01/26 11:56:51;;;;;;;7.53;1.40;;;;;;;;;;5006248;28;20051;-63
2024/01/26 11:59:17;;;;;;;10.52;1.30;;;;;;;;;;5006543;28;20040;-62
2024/01/26 12:01:43;;;;;;;7.80;1.13;;;;;;;;;;5004137;28;20030;-63
2024/01/26 12:04:09;;;;;;;6.65;1.33;;;;;;;;;;5007308;28;20026;-62
2024/01/26 12:06:35;;;;;;;19.83;2.53;;;;;;;;;;5009332;28;20105;-63
2024/01/26 12:09:01;;;;;;;17.80;3.05;;;;;;;;;;5006036;28;20057;-62
2024/01/26 12:11:27;;;;;;;7.63;1.58;;;;;;;;;;5002028;28;20059;-63
2024/01/26 12:13:53;;;;;;;7.60;1.50;;;;;;;;;;5002916;28;20033;-63
2024/01/26 12:16:23;;;;;;;6.75;1.20;;;;;;;;;;5008480;28;20030;-62
2024/01/26 12:18:49;;;;;;;8.55;1.30;;;;;;;;;;5000838;28;20038;-61
2024/01/26 12:21:15;;;;;;;8.52;1.73;;;;;;;;;;5004498;28;20022;-62
2024/01/26 12:23:41;;;;;;;12.45;1.67;;;;;;;;;;5010650;28;20018;-63
2024/01/26 12:26:11;;;;;;;6.75;1.77;;;;;;;;;;5008263;28;20036;-63
2024/01/26 12:28:37;;;;;;;10.13;1.58;;;;;;;;;;5006159;28;20504;-63
2024/01/26 12:31:04;;;;;;;8.27;1.48;;;;;;;;;;4997375;28;20108;-62
2024/01/26 12:33:31;;;;;;;9.93;1.13;;;;;;;;;;5003552;28;20029;-63
2024/01/26 12:35:59;;;;;;;9.95;1.40;;;;;;;;;;5006019;28;20073;-61
2024/01/26 12:38:25;;;;;;;6.00;1.10;;;;;;;;;;5002431;28;20088;-62
2024/01/26 12:40:51;;;;;;;20.27;1.08;;;;;;;;;;5007902;28;20062;-61
2024/01/26 12:43:17;;;;;;;7.57;1.40;;;;;;;;;;5011201;28;20053;-62
2024/01/26 12:45:43;;;;;;;8.80;1.48;;;;;;;;;;5006164;28;20026;-61
2024/01/26 12:48:09;;;;;;;7.55;1.13;;;;;;;;;;5006849;28;20029;-61
2024/01/26 12:50:35;;;;;;;2.35;0.90;;;;;;;;;;5007057;28;20080;-61
2024/01/26 12:53:01;;;;;;;5.72;1.00;;;;;;;;;;5008311;28;20076;-62
2024/01/26 12:55:27;;;;;;;4.63;0.90;;;;;;;;;;5005181;28;20041;-62
2024/01/26 12:57:53;;;;;;;9.18;1.27;;;;;;;;;;5007964;28;20042;-62
2024/01/26 13:00:19;;;;;;;4.60;1.05;;;;;;;;;;5011672;28;20025;-62
2024/01/26 13:02:45;;;;;;;12.27;1.90;;;;;;;;;;5013736;28;20029;-61
2024/01/26 13:05:11;;;;;;;6.03;1.15;;;;;;;;;;5007578;28;20357;-62
2024/01/26 13:07:37;;;;;;;8.77;1.13;;;;;;;;;;5010805;28;20045;-63
2024/01/26 13:10:04;;;;;;;4.90;0.93;;;;;;;;;;5017451;28;20500;-61
2024/01/26 13:12:30;;;;;;;12.38;1.38;;;;;;;;;;5007344;28;20036;-62
2024/01/26 13:14:56;;;;;;;6.82;1.13;;;;;;;;;;5008412;28;20021;-61
2024/01/26 13:17:22;;;;;;;10.40;1.48;;;;;;;;;;5010946;28;20047;-61
2024/01/26 13:19:48;;;;;;;3.58;0.75;;;;;;;;;;5010497;28;20026;-60
2024/01/26 13:22:14;;;;;;;10.70;1.08;;;;;;;;;;5004307;28;20041;-60
2024/01/26 13:24:40;;;;;;;10.77;1.30;;;;;;;;;;5012790;28;20022;-60
2024/01/26 13:27:06;;;;;;;10.45;1.98;;;;;;;;;;5012933;28;20116;-61
2024/01/26 13:29:33;;;;;;;4.82;0.75;;;;;;;;;;5003592;28;20022;-60
2024/01/26 13:31:59;;;;;;;9.48;1.20;;;;;;;;;;5009723;28;20018;-61
2024/01/26 13:34:25;;;;;;;6.55;1.30;;;;;;;;;;5013332;28;20091;-60
2024/01/26 13:36:51;;;;;;;7.32;1.10;;;;;;;;;;5006447;28;20057;-58
2024/01/26 13:39:17;;;;;;;7.43;1.08;;;;;;;;;;5014320;28;20197;-59
2024/01/26 13:41:43;;;;;;;8.48;1.73;;;;;;;;;;5008385;28;20056;-61
2024/01/26 13:44:09;;;;;;;8.00;1.45;;;;;;;;;;5004962;28;20034;-61
2024/01/26 13:46:35;;;;;;;16.02;1.65;;;;;;;;;;5004458;28;20396;-61
2024/01/26 13:49:01;;;;;;;11.82;1.30;;;;;;;;;;5011511;28;20054;-59
2024/01/26 13:51:27;;;;;;;9.52;1.42;;;;;;;;;;5013391;28;20033;-61
2024/01/26 13:53:53;;;;;;;9.93;1.33;;;;;;;;;;5014506;28;20332;-61
2024/01/26 13:56:19;;;;;;;10.52;2.03;;;;;;;;;;5015390;28;20041;-61
2024/01/26 13:58:45;;;;;;;5.38;1.20;;;;;;;;;;5014164;28;20109;-61
2024/01/26 14:01:11;;;;;;;8.10;1.35;;;;;;;;;;5009134;28;20040;-60
2024/01/26 14:03:39;;;;;;;14.75;1.30;;;;;;;;;;5012987;28;20037;-60
2024/01/26 14:06:06;;;;;;;8.32;1.40;;;;;;;;;;5015631;28;20553;-59
2024/01/26 14:08:32;;;;;;;9.20;1.45;;;;;;;;;;5011631;28;20079;-60
2024/01/26 14:10:58;;;;;;;11.95;1.17;;;;;;;;;;5014090;28;20712;-60
2024/01/26 14:13:24;;;;;;;14.82;1.95;;;;;;;;;;5016222;28;20026;-60
2024/01/26 14:15:50;;;;;;;7.53;1.20;;;;;;;;;;5008180;28;20100;-60
2024/01/26 14:18:16;;;;;;;15.43;1.40;;;;;;;;;;5012668;28;20026;-60
2024/01/26 14:20:42;;;;;;;5.30;1.30;;;;;;;;;;5010163;28;20064;-61
2024/01/26 14:23:08;;;;;;;9.27;1.83;;;;;;;;;;5010343;28;20034;-60
2024/01/26 14:25:34;;;;;;;6.97;1.15;;;;;;;;;;5003391;28;20040;-60
2024/01/26 14:28:03;;;;;;;7.28;1.40;;;;;;;;;;5014024;28;20045;-61
2024/01/26 14:30:29;;;;;;;12.15;1.88;;;;;;;;;;5010211;28;20029;-60
2024/01/26 14:32:55;;;;;;;11.07;1.30;;;;;;;;;;5008297;28;20105;-60